sensor_id;sensor_type;location;lat;lon;timestamp;P1;durP1;ratioP1;P2;durP2;ratioP2
23474;SDS011;11910;52.086;21.066;2023-12-29T00:00:42;17.98;;;12.02;;
23474;SDS011;11910;52.086;21.066;2023-12-29T00:03:08;19.65;;;12.20;;
23474;SDS011;11910;52.086;21.066;2023-12-29T00:05:33;19.02;;;12.93;;
23474;SDS011;11910;52.086;21.066;2023-12-29T00:07:59;20.40;;;12.45;;
23474;SDS011;11910;52.086;21.066;2023-12-29T00:10:24;19.42;;;13.10;;
23474;SDS011;11910;52.086;21.066;2023-12-29T00:12:50;21.73;;;12.32;;
23474;SDS011;11910;52.086;21.066;2023-12-29T00:15:18;19.92;;;12.32;;
23474;SDS011;11910;52.086;21.066;2023-12-29T00:17:44;18.85;;;12.77;;
23474;SDS011;11910;52.086;21.066;2023-12-29T00:20:11;20.23;;;11.98;;
23474;SDS011;11910;52.086;21.066;2023-12-29T00:22:37;20.77;;;12.15;;
23474;SDS011;11910;52.086;21.066;2023-12-29T00:25:03;18.63;;;12.32;;
23474;SDS011;11910;52.086;21.066;2023-12-29T00:27:29;19.17;;;12.98;;
23474;SDS011;11910;52.086;21.066;2023-12-29T00:29:54;19.42;;;12.18;;
23474;SDS011;11910;52.086;21.066;2023-12-29T00:32:20;19.30;;;12.68;;
23474;SDS011;11910;52.086;21.066;2023-12-29T00:34:45;18.73;;;12.80;;
23474;SDS011;11910;52.086;21.066;2023-12-29T00:37:11;20.85;;;12.45;;
23474;SDS011;11910;52.086;21.066;2023-12-29T00:39:37;21.80;;;13.20;;
23474;SDS011;11910;52.086;21.066;2023-12-29T00:42:05;21.42;;;13.88;;
23474;SDS011;11910;52.086;21.066;2023-12-29T00:44:31;20.63;;;12.60;;
23474;SDS011;11910;52.086;21.066;2023-12-29T00:46:57;21.58;;;13.70;;
23474;SDS011;11910;52.086;21.066;2023-12-29T00:49:23;22.02;;;13.30;;
23474;SDS011;11910;52.086;21.066;2023-12-29T00:51:49;21.70;;;13.50;;
23474;SDS011;11910;52.086;21.066;2023-12-29T00:54:15;21.08;;;13.43;;
23474;SDS011;11910;52.086;21.066;2023-12-29T00:56:40;22.25;;;13.73;;
23474;SDS011;11910;52.086;21.066;2023-12-29T00:59:06;23.15;;;14.05;;
23474;SDS011;11910;52.086;21.066;2023-12-29T01:01:35;19.30;;;12.88;;
23474;SDS011;11910;52.086;21.066;2023-12-29T01:04:01;21.02;;;13.40;;
23474;SDS011;11910;52.086;21.066;2023-12-29T01:06:27;20.52;;;13.68;;
23474;SDS011;11910;52.086;21.066;2023-12-29T01:08:52;20.30;;;13.25;;
23474;SDS011;11910;52.086;21.066;2023-12-29T01:11:18;21.42;;;14.30;;
23474;SDS011;11910;52.086;21.066;2023-12-29T01:13:44;21.90;;;13.48;;
23474;SDS011;11910;52.086;21.066;2023-12-29T01:16:09;20.98;;;13.77;;
23474;SDS011;11910;52.086;21.066;2023-12-29T01:18:35;19.52;;;13.35;;
23474;SDS011;11910;52.086;21.066;2023-12-29T01:21:00;21.40;;;13.82;;
23474;SDS011;11910;52.086;21.066;2023-12-29T01:23:26;21.33;;;14.20;;
23474;SDS011;11910;52.086;21.066;2023-12-29T01:25:52;21.95;;;13.80;;
23474;SDS011;11910;52.086;21.066;2023-12-29T01:28:17;21.88;;;14.48;;
23474;SDS011;11910;52.086;21.066;2023-12-29T01:30:43;22.38;;;14.32;;
23474;SDS011;11910;52.086;21.066;2023-12-29T01:33:08;23.42;;;14.18;;
23474;SDS011;11910;52.086;21.066;2023-12-29T01:35:34;21.70;;;13.68;;
23474;SDS011;11910;52.086;21.066;2023-12-29T01:37:59;20.88;;;14.40;;
23474;SDS011;11910;52.086;21.066;2023-12-29T01:40:27;21.60;;;14.65;;
23474;SDS011;11910;52.086;21.066;2023-12-29T01:42:52;21.70;;;14.45;;
23474;SDS011;11910;52.086;21.066;2023-12-29T01:45:21;22.45;;;13.98;;
23474;SDS011;11910;52.086;21.066;2023-12-29T01:47:51;20.83;;;14.00;;
23474;SDS011;11910;52.086;21.066;2023-12-29T01:50:18;24.38;;;14.35;;
23474;SDS011;11910;52.086;21.066;2023-12-29T01:52:45;23.25;;;14.10;;
23474;SDS011;11910;52.086;21.066;2023-12-29T01:55:15;21.23;;;14.80;;
23474;SDS011;11910;52.086;21.066;2023-12-29T01:57:48;22.73;;;14.50;;
23474;SDS011;11910;52.086;21.066;2023-12-29T02:00:14;21.98;;;14.38;;
23474;SDS011;11910;52.086;21.066;2023-12-29T02:02:41;23.77;;;14.45;;
23474;SDS011;11910;52.086;21.066;2023-12-29T02:05:08;19.83;;;13.93;;
23474;SDS011;11910;52.086;21.066;2023-12-29T02:07:35;23.42;;;13.98;;
23474;SDS011;11910;52.086;21.066;2023-12-29T02:10:01;21.02;;;14.73;;
23474;SDS011;11910;52.086;21.066;2023-12-29T02:12:27;23.48;;;14.45;;
23474;SDS011;11910;52.086;21.066;2023-12-29T02:14:54;21.60;;;13.77;;
23474;SDS011;11910;52.086;21.066;2023-12-29T02:19:52;22.58;;;14.00;;
23474;SDS011;11910;52.086;21.066;2023-12-29T02:22:18;23.30;;;14.57;;
23474;SDS011;11910;52.086;21.066;2023-12-29T02:24:47;23.13;;;15.00;;
23474;SDS011;11910;52.086;21.066;2023-12-29T02:32:33;22.38;;;14.55;;
23474;SDS011;11910;52.086;21.066;2023-12-29T02:35:01;23.75;;;14.48;;
23474;SDS011;11910;52.086;21.066;2023-12-29T02:37:27;23.45;;;15.55;;
23474;SDS011;11910;52.086;21.066;2023-12-29T02:39:55;22.00;;;14.70;;
23474;SDS011;11910;52.086;21.066;2023-12-29T02:42:22;22.40;;;15.68;;
23474;SDS011;11910;52.086;21.066;2023-12-29T02:44:48;21.52;;;15.52;;
23474;SDS011;11910;52.086;21.066;2023-12-29T02:47:13;25.88;;;16.05;;
23474;SDS011;11910;52.086;21.066;2023-12-29T02:49:39;25.60;;;16.35;;
23474;SDS011;11910;52.086;21.066;2023-12-29T02:52:04;23.73;;;15.63;;
23474;SDS011;11910;52.086;21.066;2023-12-29T02:54:30;25.60;;;16.40;;
23474;SDS011;11910;52.086;21.066;2023-12-29T02:56:56;25.13;;;16.58;;
23474;SDS011;11910;52.086;21.066;2023-12-29T02:59:21;23.83;;;16.02;;
23474;SDS011;11910;52.086;21.066;2023-12-29T03:01:47;25.98;;;17.10;;
23474;SDS011;11910;52.086;21.066;2023-12-29T03:04:12;20.88;;;15.35;;
23474;SDS011;11910;52.086;21.066;2023-12-29T03:06:38;25.30;;;16.92;;
23474;SDS011;11910;52.086;21.066;2023-12-29T03:09:05;24.33;;;16.45;;
23474;SDS011;11910;52.086;21.066;2023-12-29T03:11:31;25.90;;;17.60;;
23474;SDS011;11910;52.086;21.066;2023-12-29T03:13:57;27.73;;;17.60;;
23474;SDS011;11910;52.086;21.066;2023-12-29T03:16:22;24.48;;;16.45;;
23474;SDS011;11910;52.086;21.066;2023-12-29T03:18:48;24.83;;;17.98;;
23474;SDS011;11910;52.086;21.066;2023-12-29T03:21:13;26.70;;;17.63;;
23474;SDS011;11910;52.086;21.066;2023-12-29T03:23:39;29.58;;;18.30;;
23474;SDS011;11910;52.086;21.066;2023-12-29T03:26:04;26.58;;;18.00;;
23474;SDS011;11910;52.086;21.066;2023-12-29T03:28:30;28.50;;;18.27;;
23474;SDS011;11910;52.086;21.066;2023-12-29T03:30:55;28.42;;;18.63;;
23474;SDS011;11910;52.086;21.066;2023-12-29T03:33:21;28.40;;;18.33;;
23474;SDS011;11910;52.086;21.066;2023-12-29T03:35:47;29.65;;;19.13;;
23474;SDS011;11910;52.086;21.066;2023-12-29T03:38:12;29.45;;;18.83;;
23474;SDS011;11910;52.086;21.066;2023-12-29T03:40:39;26.98;;;18.77;;
23474;SDS011;11910;52.086;21.066;2023-12-29T03:43:05;28.35;;;19.23;;
23474;SDS011;11910;52.086;21.066;2023-12-29T03:45:31;29.60;;;18.90;;
23474;SDS011;11910;52.086;21.066;2023-12-29T03:47:56;28.15;;;19.45;;
23474;SDS011;11910;52.086;21.066;2023-12-29T03:50:22;28.27;;;19.60;;
23474;SDS011;11910;52.086;21.066;2023-12-29T03:52:47;29.55;;;19.40;;
23474;SDS011;11910;52.086;21.066;2023-12-29T03:55:13;31.30;;;19.20;;
23474;SDS011;11910;52.086;21.066;2023-12-29T03:57:39;27.67;;;18.67;;
23474;SDS011;11910;52.086;21.066;2023-12-29T04:00:05;29.50;;;19.23;;
23474;SDS011;11910;52.086;21.066;2023-12-29T04:02:31;29.58;;;18.77;;
23474;SDS011;11910;52.086;21.066;2023-12-29T04:04:57;29.77;;;19.45;;
23474;SDS011;11910;52.086;21.066;2023-12-29T04:07:23;28.85;;;19.75;;
23474;SDS011;11910;52.086;21.066;2023-12-29T04:09:49;29.10;;;19.67;;
23474;SDS011;11910;52.086;21.066;2023-12-29T04:12:14;28.83;;;20.13;;
23474;SDS011;11910;52.086;21.066;2023-12-29T04:14:40;30.77;;;19.38;;
23474;SDS011;11910;52.086;21.066;2023-12-29T04:17:05;31.27;;;20.10;;
23474;SDS011;11910;52.086;21.066;2023-12-29T04:19:38;27.85;;;19.05;;
23474;SDS011;11910;52.086;21.066;2023-12-29T04:22:07;28.77;;;19.38;;
23474;SDS011;11910;52.086;21.066;2023-12-29T04:24:33;28.98;;;19.08;;
23474;SDS011;11910;52.086;21.066;2023-12-29T04:26:59;27.90;;;19.33;;
23474;SDS011;11910;52.086;21.066;2023-12-29T04:29:24;29.27;;;18.70;;
23474;SDS011;11910;52.086;21.066;2023-12-29T04:31:50;27.90;;;18.85;;
23474;SDS011;11910;52.086;21.066;2023-12-29T04:34:16;27.75;;;18.27;;
23474;SDS011;11910;52.086;21.066;2023-12-29T04:36:42;29.90;;;19.10;;
23474;SDS011;11910;52.086;21.066;2023-12-29T04:39:07;27.25;;;19.05;;
23474;SDS011;11910;52.086;21.066;2023-12-29T04:41:35;27.58;;;17.92;;
23474;SDS011;11910;52.086;21.066;2023-12-29T04:44:01;29.98;;;18.95;;
23474;SDS011;11910;52.086;21.066;2023-12-29T04:46:27;28.58;;;19.65;;
23474;SDS011;11910;52.086;21.066;2023-12-29T04:48:52;28.25;;;18.73;;
23474;SDS011;11910;52.086;21.066;2023-12-29T04:51:18;25.77;;;17.38;;
23474;SDS011;11910;52.086;21.066;2023-12-29T04:53:45;25.50;;;17.65;;
23474;SDS011;11910;52.086;21.066;2023-12-29T04:56:10;26.30;;;17.63;;
23474;SDS011;11910;52.086;21.066;2023-12-29T04:58:37;27.50;;;17.67;;
23474;SDS011;11910;52.086;21.066;2023-12-29T05:01:03;26.10;;;18.00;;
23474;SDS011;11910;52.086;21.066;2023-12-29T05:03:29;27.05;;;17.50;;
23474;SDS011;11910;52.086;21.066;2023-12-29T05:05:55;26.45;;;17.98;;
23474;SDS011;11910;52.086;21.066;2023-12-29T05:08:20;26.55;;;16.95;;
23474;SDS011;11910;52.086;21.066;2023-12-29T05:10:46;26.00;;;16.85;;
23474;SDS011;11910;52.086;21.066;2023-12-29T05:13:12;22.42;;;15.70;;
23474;SDS011;11910;52.086;21.066;2023-12-29T05:15:37;24.52;;;16.35;;
23474;SDS011;11910;52.086;21.066;2023-12-29T05:18:03;25.25;;;16.83;;
23474;SDS011;11910;52.086;21.066;2023-12-29T05:20:28;26.08;;;16.60;;
23474;SDS011;11910;52.086;21.066;2023-12-29T05:22:54;25.98;;;16.50;;
23474;SDS011;11910;52.086;21.066;2023-12-29T05:25:20;26.83;;;17.00;;
23474;SDS011;11910;52.086;21.066;2023-12-29T05:27:47;23.40;;;15.82;;
23474;SDS011;11910;52.086;21.066;2023-12-29T05:30:13;23.70;;;16.13;;
23474;SDS011;11910;52.086;21.066;2023-12-29T05:32:38;24.48;;;16.20;;
23474;SDS011;11910;52.086;21.066;2023-12-29T05:35:04;23.60;;;15.45;;
23474;SDS011;11910;52.086;21.066;2023-12-29T05:37:30;19.75;;;14.55;;
23474;SDS011;11910;52.086;21.066;2023-12-29T05:39:56;21.63;;;15.05;;
23474;SDS011;11910;52.086;21.066;2023-12-29T05:42:21;24.25;;;15.98;;
23474;SDS011;11910;52.086;21.066;2023-12-29T05:44:47;22.80;;;16.05;;
23474;SDS011;11910;52.086;21.066;2023-12-29T05:47:13;21.90;;;15.85;;
23474;SDS011;11910;52.086;21.066;2023-12-29T05:49:38;20.40;;;14.38;;
23474;SDS011;11910;52.086;21.066;2023-12-29T05:52:05;21.58;;;15.50;;
23474;SDS011;11910;52.086;21.066;2023-12-29T05:54:31;21.35;;;15.52;;
23474;SDS011;11910;52.086;21.066;2023-12-29T05:56:56;21.13;;;15.07;;
23474;SDS011;11910;52.086;21.066;2023-12-29T05:59:22;21.90;;;15.52;;
23474;SDS011;11910;52.086;21.066;2023-12-29T06:01:48;18.81;;;14.86;;
23474;SDS011;11910;52.086;21.066;2023-12-29T06:04:14;21.38;;;14.50;;
23474;SDS011;11910;52.086;21.066;2023-12-29T06:06:41;19.75;;;14.23;;
23474;SDS011;11910;52.086;21.066;2023-12-29T06:09:08;20.27;;;14.27;;
23474;SDS011;11910;52.086;21.066;2023-12-29T06:11:35;21.55;;;14.82;;
23474;SDS011;11910;52.086;21.066;2023-12-29T06:14:01;21.90;;;14.98;;
23474;SDS011;11910;52.086;21.066;2023-12-29T06:16:27;20.73;;;14.48;;
23474;SDS011;11910;52.086;21.066;2023-12-29T06:18:54;19.35;;;14.18;;
23474;SDS011;11910;52.086;21.066;2023-12-29T06:21:20;20.05;;;14.25;;
23474;SDS011;11910;52.086;21.066;2023-12-29T06:23:46;21.73;;;14.38;;
23474;SDS011;11910;52.086;21.066;2023-12-29T06:26:15;20.63;;;14.52;;
23474;SDS011;11910;52.086;21.066;2023-12-29T06:28:41;20.90;;;14.18;;
23474;SDS011;11910;52.086;21.066;2023-12-29T06:31:07;19.23;;;13.70;;
23474;SDS011;11910;52.086;21.066;2023-12-29T06:33:33;20.45;;;13.73;;
23474;SDS011;11910;52.086;21.066;2023-12-29T06:35:58;21.05;;;14.43;;
23474;SDS011;11910;52.086;21.066;2023-12-29T06:38:24;21.95;;;14.25;;
23474;SDS011;11910;52.086;21.066;2023-12-29T06:40:50;19.98;;;13.57;;
23474;SDS011;11910;52.086;21.066;2023-12-29T06:43:15;21.08;;;14.20;;
23474;SDS011;11910;52.086;21.066;2023-12-29T06:45:41;21.30;;;14.70;;
23474;SDS011;11910;52.086;21.066;2023-12-29T06:48:07;19.67;;;13.93;;
23474;SDS011;11910;52.086;21.066;2023-12-29T06:50:32;20.45;;;13.85;;
23474;SDS011;11910;52.086;21.066;2023-12-29T06:52:58;18.77;;;13.60;;
23474;SDS011;11910;52.086;21.066;2023-12-29T06:55:24;20.40;;;13.98;;
23474;SDS011;11910;52.086;21.066;2023-12-29T06:57:50;20.75;;;13.98;;
23474;SDS011;11910;52.086;21.066;2023-12-29T07:00:16;22.42;;;14.48;;
23474;SDS011;11910;52.086;21.066;2023-12-29T07:02:42;20.23;;;14.93;;
23474;SDS011;11910;52.086;21.066;2023-12-29T07:05:07;20.08;;;14.32;;
23474;SDS011;11910;52.086;21.066;2023-12-29T07:07:36;20.65;;;14.65;;
23474;SDS011;11910;52.086;21.066;2023-12-29T07:10:02;19.92;;;13.82;;
23474;SDS011;11910;52.086;21.066;2023-12-29T07:12:28;19.35;;;14.20;;
23474;SDS011;11910;52.086;21.066;2023-12-29T07:14:54;18.83;;;13.88;;
23474;SDS011;11910;52.086;21.066;2023-12-29T07:17:20;19.60;;;13.80;;
23474;SDS011;11910;52.086;21.066;2023-12-29T07:19:45;21.25;;;13.90;;
23474;SDS011;11910;52.086;21.066;2023-12-29T07:22:11;21.05;;;14.43;;
23474;SDS011;11910;52.086;21.066;2023-12-29T07:24:36;19.25;;;14.10;;
23474;SDS011;11910;52.086;21.066;2023-12-29T07:27:03;20.98;;;14.07;;
23474;SDS011;11910;52.086;21.066;2023-12-29T07:29:29;20.48;;;14.10;;
23474;SDS011;11910;52.086;21.066;2023-12-29T07:31:54;19.98;;;14.57;;
23474;SDS011;11910;52.086;21.066;2023-12-29T07:34:20;20.33;;;13.98;;
23474;SDS011;11910;52.086;21.066;2023-12-29T07:36:46;18.02;;;13.43;;
23474;SDS011;11910;52.086;21.066;2023-12-29T07:39:12;21.55;;;13.93;;
23474;SDS011;11910;52.086;21.066;2023-12-29T07:41:41;19.85;;;13.90;;
23474;SDS011;11910;52.086;21.066;2023-12-29T07:44:07;18.67;;;13.70;;
23474;SDS011;11910;52.086;21.066;2023-12-29T07:46:35;20.90;;;14.57;;
23474;SDS011;11910;52.086;21.066;2023-12-29T07:49:00;19.10;;;13.82;;
23474;SDS011;11910;52.086;21.066;2023-12-29T07:51:26;19.48;;;13.45;;
23474;SDS011;11910;52.086;21.066;2023-12-29T07:53:51;21.95;;;14.43;;
23474;SDS011;11910;52.086;21.066;2023-12-29T07:56:17;21.02;;;13.98;;
23474;SDS011;11910;52.086;21.066;2023-12-29T07:58:42;20.88;;;14.15;;
23474;SDS011;11910;52.086;21.066;2023-12-29T08:01:08;19.50;;;14.00;;
23474;SDS011;11910;52.086;21.066;2023-12-29T08:03:35;19.95;;;13.90;;
23474;SDS011;11910;52.086;21.066;2023-12-29T08:06:01;19.98;;;13.77;;
23474;SDS011;11910;52.086;21.066;2023-12-29T08:08:27;19.65;;;13.68;;
23474;SDS011;11910;52.086;21.066;2023-12-29T08:10:52;20.13;;;13.85;;
23474;SDS011;11910;52.086;21.066;2023-12-29T08:13:18;18.67;;;13.40;;
23474;SDS011;11910;52.086;21.066;2023-12-29T08:15:43;20.02;;;13.82;;
23474;SDS011;11910;52.086;21.066;2023-12-29T08:18:10;19.08;;;13.00;;
23474;SDS011;11910;52.086;21.066;2023-12-29T08:20:35;18.30;;;13.05;;
23474;SDS011;11910;52.086;21.066;2023-12-29T08:23:01;18.70;;;12.80;;
23474;SDS011;11910;52.086;21.066;2023-12-29T08:25:28;18.90;;;12.82;;
23474;SDS011;11910;52.086;21.066;2023-12-29T08:27:54;17.10;;;11.75;;
23474;SDS011;11910;52.086;21.066;2023-12-29T08:30:20;16.45;;;11.57;;
23474;SDS011;11910;52.086;21.066;2023-12-29T08:32:46;16.40;;;11.45;;
23474;SDS011;11910;52.086;21.066;2023-12-29T08:35:12;15.70;;;11.15;;
23474;SDS011;11910;52.086;21.066;2023-12-29T08:37:38;15.55;;;11.45;;
23474;SDS011;11910;52.086;21.066;2023-12-29T08:40:03;16.05;;;11.40;;
23474;SDS011;11910;52.086;21.066;2023-12-29T08:42:30;14.45;;;10.48;;
23474;SDS011;11910;52.086;21.066;2023-12-29T08:44:55;15.65;;;10.73;;
23474;SDS011;11910;52.086;21.066;2023-12-29T08:47:23;14.90;;;10.63;;
23474;SDS011;11910;52.086;21.066;2023-12-29T08:49:49;13.82;;;9.93;;
23474;SDS011;11910;52.086;21.066;2023-12-29T08:52:14;12.57;;;9.68;;
23474;SDS011;11910;52.086;21.066;2023-12-29T08:54:40;14.13;;;10.13;;
23474;SDS011;11910;52.086;21.066;2023-12-29T08:57:05;13.98;;;9.68;;
23474;SDS011;11910;52.086;21.066;2023-12-29T08:59:32;13.20;;;9.60;;
23474;SDS011;11910;52.086;21.066;2023-12-29T09:01:58;12.13;;;9.50;;
23474;SDS011;11910;52.086;21.066;2023-12-29T09:04:23;11.70;;;8.40;;
23474;SDS011;11910;52.086;21.066;2023-12-29T09:06:49;13.27;;;8.82;;
23474;SDS011;11910;52.086;21.066;2023-12-29T09:09:15;11.23;;;8.40;;
23474;SDS011;11910;52.086;21.066;2023-12-29T09:11:43;10.93;;;8.40;;
23474;SDS011;11910;52.086;21.066;2023-12-29T09:14:09;11.77;;;8.52;;
23474;SDS011;11910;52.086;21.066;2023-12-29T09:16:35;12.15;;;8.20;;
23474;SDS011;11910;52.086;21.066;2023-12-29T09:19:01;14.75;;;8.70;;
23474;SDS011;11910;52.086;21.066;2023-12-29T09:21:27;11.18;;;7.93;;
23474;SDS011;11910;52.086;21.066;2023-12-29T09:23:53;14.23;;;8.10;;
23474;SDS011;11910;52.086;21.066;2023-12-29T09:26:18;10.75;;;8.07;;
23474;SDS011;11910;52.086;21.066;2023-12-29T09:28:44;13.00;;;8.55;;
23474;SDS011;11910;52.086;21.066;2023-12-29T09:31:11;10.50;;;8.20;;
23474;SDS011;11910;52.086;21.066;2023-12-29T09:33:37;12.73;;;8.20;;
23474;SDS011;11910;52.086;21.066;2023-12-29T09:36:03;11.55;;;8.23;;
23474;SDS011;11910;52.086;21.066;2023-12-29T09:38:29;11.73;;;8.40;;
23474;SDS011;11910;52.086;21.066;2023-12-29T09:40:55;10.93;;;8.40;;
23474;SDS011;11910;52.086;21.066;2023-12-29T09:43:25;10.98;;;8.10;;
23474;SDS011;11910;52.086;21.066;2023-12-29T09:45:51;11.48;;;8.40;;
23474;SDS011;11910;52.086;21.066;2023-12-29T09:48:17;11.02;;;8.30;;
23474;SDS011;11910;52.086;21.066;2023-12-29T09:50:45;12.77;;;8.88;;
23474;SDS011;11910;52.086;21.066;2023-12-29T09:53:14;11.90;;;7.95;;
23474;SDS011;11910;52.086;21.066;2023-12-29T09:55:42;12.02;;;8.75;;
23474;SDS011;11910;52.086;21.066;2023-12-29T09:58:08;11.32;;;8.68;;
23474;SDS011;11910;52.086;21.066;2023-12-29T10:00:35;11.20;;;9.07;;
23474;SDS011;11910;52.086;21.066;2023-12-29T10:03:01;12.85;;;8.55;;
23474;SDS011;11910;52.086;21.066;2023-12-29T10:05:27;13.65;;;8.40;;
23474;SDS011;11910;52.086;21.066;2023-12-29T10:07:53;12.95;;;8.88;;
23474;SDS011;11910;52.086;21.066;2023-12-29T10:10:19;11.73;;;8.60;;
23474;SDS011;11910;52.086;21.066;2023-12-29T10:12:48;13.30;;;8.77;;
23474;SDS011;11910;52.086;21.066;2023-12-29T10:15:22;10.75;;;8.15;;
23474;SDS011;11910;52.086;21.066;2023-12-29T10:18:04;10.95;;;8.25;;
23474;SDS011;11910;52.086;21.066;2023-12-29T10:20:50;11.50;;;7.95;;
23474;SDS011;11910;52.086;21.066;2023-12-29T10:24:10;10.52;;;8.30;;
23474;SDS011;11910;52.086;21.066;2023-12-29T10:26:18;11.05;;;7.78;;
23474;SDS011;11910;52.086;21.066;2023-12-29T10:28:46;11.10;;;8.45;;
23474;SDS011;11910;52.086;21.066;2023-12-29T10:31:16;10.93;;;8.10;;
23474;SDS011;11910;52.086;21.066;2023-12-29T10:33:41;12.48;;;8.00;;
23474;SDS011;11910;52.086;21.066;2023-12-29T10:36:07;11.68;;;8.35;;
23474;SDS011;11910;52.086;21.066;2023-12-29T10:38:34;9.38;;;7.45;;
23474;SDS011;11910;52.086;21.066;2023-12-29T10:43:42;10.02;;;7.45;;
23474;SDS011;11910;52.086;21.066;2023-12-29T10:46:10;10.38;;;7.30;;
23474;SDS011;11910;52.086;21.066;2023-12-29T10:48:36;10.05;;;7.45;;
23474;SDS011;11910;52.086;21.066;2023-12-29T10:51:02;10.25;;;6.68;;
23474;SDS011;11910;52.086;21.066;2023-12-29T10:53:32;10.75;;;7.75;;
23474;SDS011;11910;52.086;21.066;2023-12-29T10:55:59;11.35;;;7.60;;
23474;SDS011;11910;52.086;21.066;2023-12-29T10:58:28;12.07;;;7.38;;
23474;SDS011;11910;52.086;21.066;2023-12-29T11:00:55;11.27;;;7.53;;
23474;SDS011;11910;52.086;21.066;2023-12-29T11:03:21;10.65;;;7.28;;
23474;SDS011;11910;52.086;21.066;2023-12-29T11:05:47;10.85;;;7.90;;
23474;SDS011;11910;52.086;21.066;2023-12-29T11:08:18;10.25;;;7.20;;
23474;SDS011;11910;52.086;21.066;2023-12-29T11:10:45;9.13;;;6.60;;
23474;SDS011;11910;52.086;21.066;2023-12-29T11:13:12;9.02;;;6.60;;
23474;SDS011;11910;52.086;21.066;2023-12-29T11:15:42;10.82;;;6.93;;
23474;SDS011;11910;52.086;21.066;2023-12-29T11:18:11;9.80;;;6.05;;
23474;SDS011;11910;52.086;21.066;2023-12-29T11:20:42;10.23;;;6.57;;
23474;SDS011;11910;52.086;21.066;2023-12-29T11:23:10;10.13;;;7.38;;
23474;SDS011;11910;52.086;21.066;2023-12-29T11:25:39;9.30;;;6.38;;
23474;SDS011;11910;52.086;21.066;2023-12-29T11:28:09;9.55;;;6.50;;
23474;SDS011;11910;52.086;21.066;2023-12-29T11:30:36;8.32;;;5.68;;
23474;SDS011;11910;52.086;21.066;2023-12-29T11:33:04;9.15;;;5.80;;
23474;SDS011;11910;52.086;21.066;2023-12-29T11:35:45;8.88;;;5.65;;
23474;SDS011;11910;52.086;21.066;2023-12-29T11:43:24;7.53;;;5.25;;
23474;SDS011;11910;52.086;21.066;2023-12-29T11:45:51;8.25;;;4.93;;
23474;SDS011;11910;52.086;21.066;2023-12-29T11:51:30;7.50;;;4.90;;
23474;SDS011;11910;52.086;21.066;2023-12-29T11:54:06;7.95;;;4.85;;
23474;SDS011;11910;52.086;21.066;2023-12-29T11:59:16;7.03;;;5.15;;
23474;SDS011;11910;52.086;21.066;2023-12-29T12:01:46;6.00;;;4.05;;
23474;SDS011;11910;52.086;21.066;2023-12-29T12:10:28;7.03;;;4.93;;
23474;SDS011;11910;52.086;21.066;2023-12-29T12:12:47;6.30;;;4.45;;
23474;SDS011;11910;52.086;21.066;2023-12-29T12:20:23;5.90;;;4.30;;
23474;SDS011;11910;52.086;21.066;2023-12-29T12:23:02;7.32;;;5.15;;
23474;SDS011;11910;52.086;21.066;2023-12-29T12:25:35;7.32;;;4.85;;
23474;SDS011;11910;52.086;21.066;2023-12-29T12:28:07;8.55;;;5.43;;
23474;SDS011;11910;52.086;21.066;2023-12-29T12:30:34;9.95;;;5.15;;
23474;SDS011;11910;52.086;21.066;2023-12-29T12:33:00;8.25;;;5.30;;
23474;SDS011;11910;52.086;21.066;2023-12-29T12:35:28;8.18;;;5.15;;
23474;SDS011;11910;52.086;21.066;2023-12-29T12:40:39;10.98;;;5.72;;
23474;SDS011;11910;52.086;21.066;2023-12-29T12:43:05;9.90;;;5.80;;
23474;SDS011;11910;52.086;21.066;2023-12-29T12:45:35;7.47;;;4.93;;
23474;SDS011;11910;52.086;21.066;2023-12-29T12:50:59;6.40;;;5.00;;
23474;SDS011;11910;52.086;21.066;2023-12-29T12:53:25;6.75;;;5.00;;
23474;SDS011;11910;52.086;21.066;2023-12-29T12:55:52;6.97;;;4.70;;
23474;SDS011;11910;52.086;21.066;2023-12-29T12:58:19;6.50;;;4.85;;
23474;SDS011;11910;52.086;21.066;2023-12-29T13:00:46;8.32;;;5.60;;
23474;SDS011;11910;52.086;21.066;2023-12-29T13:03:12;7.47;;;5.18;;
23474;SDS011;11910;52.086;21.066;2023-12-29T13:05:39;6.85;;;4.97;;
23474;SDS011;11910;52.086;21.066;2023-12-29T13:08:05;8.85;;;4.90;;
23474;SDS011;11910;52.086;21.066;2023-12-29T13:10:31;9.35;;;5.07;;
23474;SDS011;11910;52.086;21.066;2023-12-29T13:12:57;9.35;;;5.35;;
23474;SDS011;11910;52.086;21.066;2023-12-29T13:15:23;7.40;;;5.22;;
23474;SDS011;11910;52.086;21.066;2023-12-29T13:17:49;9.15;;;5.40;;
23474;SDS011;11910;52.086;21.066;2023-12-29T13:20:18;9.23;;;5.50;;
23474;SDS011;11910;52.086;21.066;2023-12-29T13:22:49;7.28;;;5.10;;
23474;SDS011;11910;52.086;21.066;2023-12-29T13:25:21;7.00;;;4.97;;
23474;SDS011;11910;52.086;21.066;2023-12-29T13:27:50;9.60;;;5.35;;
23474;SDS011;11910;52.086;21.066;2023-12-29T13:30:17;7.38;;;5.30;;
23474;SDS011;11910;52.086;21.066;2023-12-29T13:32:45;8.27;;;5.28;;
23474;SDS011;11910;52.086;21.066;2023-12-29T13:38:16;7.60;;;5.53;;
23474;SDS011;11910;52.086;21.066;2023-12-29T13:40:47;10.02;;;5.45;;
23474;SDS011;11910;52.086;21.066;2023-12-29T13:43:32;10.15;;;5.97;;
23474;SDS011;11910;52.086;21.066;2023-12-29T13:46:00;7.70;;;5.57;;
23474;SDS011;11910;52.086;21.066;2023-12-29T13:48:27;8.68;;;5.97;;
23474;SDS011;11910;52.086;21.066;2023-12-29T13:50:53;10.10;;;5.90;;
23474;SDS011;11910;52.086;21.066;2023-12-29T13:53:19;8.55;;;6.07;;
23474;SDS011;11910;52.086;21.066;2023-12-29T13:55:46;12.27;;;7.22;;
23474;SDS011;11910;52.086;21.066;2023-12-29T13:58:12;8.70;;;6.43;;
23474;SDS011;11910;52.086;21.066;2023-12-29T14:00:41;8.20;;;6.10;;
23474;SDS011;11910;52.086;21.066;2023-12-29T14:03:42;8.98;;;5.40;;
23474;SDS011;11910;52.086;21.066;2023-12-29T14:06:11;14.13;;;6.57;;
23474;SDS011;11910;52.086;21.066;2023-12-29T14:08:39;9.82;;;5.93;;
23474;SDS011;11910;52.086;21.066;2023-12-29T14:11:09;11.27;;;7.60;;
23474;SDS011;11910;52.086;21.066;2023-12-29T14:13:35;8.43;;;5.80;;
23474;SDS011;11910;52.086;21.066;2023-12-29T14:16:09;11.23;;;6.40;;
23474;SDS011;11910;52.086;21.066;2023-12-29T14:24:00;10.25;;;5.50;;
23474;SDS011;11910;52.086;21.066;2023-12-29T14:26:31;9.18;;;5.93;;
23474;SDS011;11910;52.086;21.066;2023-12-29T14:29:00;9.55;;;5.78;;
23474;SDS011;11910;52.086;21.066;2023-12-29T14:31:26;9.40;;;6.15;;
23474;SDS011;11910;52.086;21.066;2023-12-29T14:33:52;9.70;;;6.43;;
23474;SDS011;11910;52.086;21.066;2023-12-29T14:36:17;11.15;;;7.15;;
23474;SDS011;11910;52.086;21.066;2023-12-29T14:38:43;9.45;;;6.70;;
23474;SDS011;11910;52.086;21.066;2023-12-29T14:41:09;10.15;;;6.40;;
23474;SDS011;11910;52.086;21.066;2023-12-29T14:43:35;10.90;;;6.45;;
23474;SDS011;11910;52.086;21.066;2023-12-29T14:46:01;10.00;;;6.55;;
23474;SDS011;11910;52.086;21.066;2023-12-29T14:48:27;9.88;;;6.47;;
23474;SDS011;11910;52.086;21.066;2023-12-29T14:50:52;9.77;;;6.90;;
23474;SDS011;11910;52.086;21.066;2023-12-29T14:53:18;13.45;;;7.13;;
23474;SDS011;11910;52.086;21.066;2023-12-29T14:55:44;9.60;;;6.47;;
23474;SDS011;11910;52.086;21.066;2023-12-29T14:58:10;11.57;;;6.80;;
23474;SDS011;11910;52.086;21.066;2023-12-29T15:00:35;11.32;;;6.93;;